Time;durP1;ratioP1;P1;durP2;ratioP2;P2;SDS_P1;SDS_P2;PMS_P1;PMS_P2;Temp;Humidity;BMP_temperature;BMP_pressure;BME280_temperature;BME280_humidity;BME280_pressure;Samples;Min_cycle;Max_cycle;Signal;HPM_P1;HPM_P2
2021/11/23 00:01:45;;;;;;;;;2.00;1.00;;;;;21.59;36.02;102857.31;4973902;28;45507;-65
2021/11/23 00:04:10;;;;;;;;;2.67;1.00;;;;;21.58;35.95;102849.47;4972311;28;45493;-66
2021/11/23 00:06:37;;;;;;;;;1.25;1.25;;;;;21.60;36.35;102844.88;4975715;28;45384;-65
2021/11/23 00:09:04;;;;;;;;;1.00;1.00;;;;;21.60;36.09;102837.78;4974085;28;45342;-64
2021/11/23 00:11:29;;;;;;;;;1.00;1.00;;;;;21.51;36.36;102826.16;4972137;28;45518;-65
2021/11/23 00:13:55;;;;;;;;;1.25;1.25;;;;;21.55;36.47;102829.38;4973595;28;45301;-65
2021/11/23 00:16:20;;;;;;;;;1.00;1.00;;;;;21.57;36.16;102834.56;4973930;28;45292;-65
2021/11/23 00:18:47;;;;;;;;;1.00;1.00;;;;;21.59;35.60;102836.09;4974760;28;45451;-65
2021/11/23 00:21:13;;;;;;;;;1.00;1.00;;;;;21.58;36.09;102838.88;4974209;28;46050;-65
2021/11/23 00:23:38;;;;;;;;;1.50;1.00;;;;;21.54;35.70;102838.31;4973270;28;45329;-65
2021/11/23 00:26:05;;;;;;;;;1.00;1.00;;;;;21.57;35.78;102840.66;4973599;28;45360;-65
2021/11/23 00:28:30;;;;;;;;;1.00;1.00;;;;;21.55;36.25;102836.47;4973492;28;45505;-65
2021/11/23 00:30:55;;;;;;;;;1.00;1.00;;;;;21.57;36.39;102837.22;4973253;28;46240;-64
2021/11/23 00:33:21;;;;;;;;;1.00;1.00;;;;;21.54;36.24;102840.09;4975690;28;45527;-65
2021/11/23 00:35:46;;;;;;;;;3.00;1.00;;;;;21.56;35.82;102841.66;4973178;28;45469;-65
2021/11/23 00:38:12;;;;;;;;;3.00;1.00;;;;;21.55;35.95;102834.66;4973401;28;45487;-65
2021/11/23 00:40:37;;;;;;;;;2.00;0.50;;;;;21.54;35.99;102842.75;4973276;28;46340;-65
2021/11/23 00:43:05;;;;;;;;;1.75;1.00;;;;;21.54;35.89;102832.16;4972667;28;45299;-65
2021/11/23 00:45:33;;;;;;;;;1.33;0.33;;;;;21.56;36.09;102835.50;4975224;28;45358;-65
2021/11/23 00:47:59;;;;;;;;;0.00;0.00;;;;;21.53;35.80;102833.97;4973048;28;45373;-65
2021/11/23 00:50:24;;;;;;;;;0.75;0.75;;;;;21.54;35.63;102838.31;4970253;28;45713;-64
2021/11/23 00:52:50;;;;;;;;;2.75;1.00;;;;;21.55;35.98;102832.03;4973297;28;45375;-64
2021/11/23 00:55:15;;;;;;;;;2.00;0.75;;;;;21.54;36.25;102837.47;4973477;28;45415;-65
2021/11/23 00:57:41;;;;;;;;;1.00;1.00;;;;;21.53;35.79;102833.97;4974869;28;45471;-64
2021/11/23 01:00:09;;;;;;;;;1.00;1.00;;;;;21.55;35.80;102828.53;4974354;28;46330;-65
2021/11/23 01:02:35;;;;;;;;;1.00;1.00;;;;;21.50;36.00;102819.16;4973249;28;45498;-65
2021/11/23 01:05:01;;;;;;;;;1.00;1.00;;;;;21.51;35.58;102825.31;4972931;28;45351;-65
2021/11/23 01:07:26;;;;;;;;;1.00;1.00;;;;;21.51;35.65;102820.88;4973259;28;45363;-65
2021/11/23 01:09:52;;;;;;;;;0.00;0.00;;;;;21.54;35.82;102824.22;4973418;28;45603;-65
2021/11/23 01:12:17;;;;;;;;;1.50;1.00;;;;;21.50;35.91;102810.38;4974750;28;45294;-64
2021/11/23 01:14:43;;;;;;;;;1.00;1.00;;;;;21.51;35.87;102820.88;4973009;28;45501;-65
2021/11/23 01:17:08;;;;;;;;;1.00;1.00;;;;;21.52;35.72;102830.47;4973180;28;45330;-65
2021/11/23 01:19:33;;;;;;;;;1.00;1.00;;;;;21.50;35.90;102829.75;4972438;28;45358;-65
2021/11/23 01:21:59;;;;;;;;;1.00;1.00;;;;;21.47;35.91;102822.06;4972784;28;45289;-65
2021/11/23 01:24:24;;;;;;;;;0.50;0.50;;;;;21.44;35.77;102821.50;4973630;28;45588;-65
2021/11/23 01:26:49;;;;;;;;;2.50;1.25;;;;;21.46;35.50;102830.16;4972906;28;45343;-65
2021/11/23 01:29:15;;;;;;;;;0.00;0.00;;;;;21.49;35.98;102828.06;4971366;28;45295;-65
2021/11/23 01:31:40;;;;;;;;;1.00;1.00;;;;;21.48;35.78;102836.16;4972804;28;45393;-65
2021/11/23 01:34:06;;;;;;;;;0.50;0.00;;;;;21.48;35.83;102839.66;4972673;28;45381;-65
2021/11/23 01:36:32;;;;;;;;;0.00;0.00;;;;;21.50;35.52;102844.81;4974856;28;45348;-65
2021/11/23 01:38:57;;;;;;;;;1.75;0.50;;;;;21.47;35.65;102839.75;4972505;28;45509;-65
2021/11/23 01:41:24;;;;;;;;;0.75;0.75;;;;;21.50;35.91;102842.16;4966047;28;45548;-64
2021/11/23 01:43:49;;;;;;;;;1.50;0.75;;;;;21.34;35.70;102814.31;4956385;28;45387;-65
2021/11/23 01:46:15;;;;;;;;;0.00;0.00;;;;;21.49;35.61;102835.19;4957511;28;45512;-65
2021/11/23 01:48:41;;;;;;;;;2.00;1.00;;;;;21.48;35.88;102831.69;4970448;28;47155;-65
2021/11/23 01:51:06;;;;;;;;;1.00;0.00;;;;;21.49;35.63;102837.84;4966091;28;47877;-65
2021/11/23 01:53:32;;;;;;;;;2.00;0.00;;;;;21.49;35.31;102833.38;4963809;28;45371;-65
2021/11/23 01:55:57;;;;;;;;;1.50;1.50;;;;;21.46;35.78;102831.00;4957946;28;45348;-65
2021/11/23 01:58:23;;;;;;;;;1.00;1.00;;;;;21.49;35.58;102846.59;4970575;28;45428;-65
2021/11/23 02:00:49;;;;;;;;;1.75;1.00;;;;;21.49;35.17;102845.78;4970930;28;45395;-65
2021/11/23 02:03:16;;;;;;;;;1.00;0.00;;;;;21.51;35.42;102838.56;4967605;28;45332;-65
2021/11/23 02:05:41;;;;;;;;;1.00;1.00;;;;;21.45;35.41;102834.59;4968208;28;45605;-65
2021/11/23 02:08:07;;;;;;;;;1.00;1.00;;;;;21.50;35.30;102848.31;4966439;28;45527;-64
2021/11/23 02:10:33;;;;;;;;;1.00;1.00;;;;;21.47;35.65;102842.41;4969297;28;45834;-64
2021/11/23 02:13:00;;;;;;;;;1.00;1.00;;;;;21.47;35.50;102835.31;4971817;28;45445;-65
2021/11/23 02:15:25;;;;;;;;;1.75;0.25;;;;;21.50;35.15;102842.16;4970197;28;45407;-65
2021/11/23 02:17:51;;;;;;;;;1.00;1.00;;;;;21.50;35.25;102842.16;4967366;28;47095;-65
2021/11/23 02:20:19;;;;;;;;;2.00;2.00;;;;;21.51;35.47;102830.59;4966560;28;45354;-65
2021/11/23 02:22:46;;;;;;;;;0.75;0.00;;;;;21.53;35.34;102839.25;4968176;28;45412;-65
2021/11/23 02:25:12;;;;;;;;;1.00;1.00;;;;;21.52;35.18;102846.34;4972297;28;45498;-65
2021/11/23 02:27:38;;;;;;;;;1.00;1.00;;;;;21.51;35.24;102838.56;4974163;28;46211;-65
2021/11/23 02:30:05;;;;;;;;;0.75;0.75;;;;;21.53;35.65;102841.91;4970818;28;45478;-65
2021/11/23 02:32:40;;;;;;;;;2.00;1.00;;;;;21.54;35.40;102845.41;4971572;28;45500;-65
2021/11/23 02:35:06;;;;;;;;;3.00;2.00;;;;;21.53;35.50;102841.91;4971950;28;45240;-65
2021/11/23 02:37:32;;;;;;;;;1.00;1.00;;;;;21.53;35.22;102831.31;4971804;28;45469;-65
2021/11/23 02:39:57;;;;;;;;;0.25;0.25;;;;;21.48;35.42;102829.06;4972023;28;45234;-65
2021/11/23 02:42:22;;;;;;;;;0.25;0.25;;;;;21.51;35.61;102833.25;4972620;28;45437;-64
2021/11/23 02:44:48;;;;;;;;;1.00;1.00;;;;;21.50;35.32;102828.91;4971835;28;45569;-65
2021/11/23 02:47:13;;;;;;;;;0.75;0.75;;;;;21.55;35.45;102841.78;4969932;28;46205;-65
2021/11/23 02:49:38;;;;;;;;;0.00;0.00;;;;;21.52;35.47;102830.47;4971977;28;45330;-65
2021/11/23 02:52:08;;;;;;;;;0.25;0.00;;;;;21.53;35.67;102839.25;4972110;28;45818;-65
2021/11/23 02:54:35;;;;;;;;;1.00;1.00;;;;;21.51;35.64;102827.97;4973860;28;45647;-65
2021/11/23 02:57:01;;;;;;;;;2.00;1.00;;;;;21.53;35.65;102831.31;4971559;28;45352;-65
2021/11/23 02:59:27;;;;;;;;;2.00;1.00;;;;;21.49;35.44;102819.31;4989861;28;45407;-65
2021/11/23 03:01:52;;;;;;;;;1.25;0.75;;;;;21.50;35.53;102824.47;4971656;28;45352;-65
2021/11/23 03:04:18;;;;;;;;;1.00;1.00;;;;;21.50;35.20;102819.16;4971764;28;45356;-65
2021/11/23 03:06:43;;;;;;;;;1.00;1.00;;;;;21.47;35.72;102819.41;4972842;28;45628;-65
2021/11/23 03:09:09;;;;;;;;;1.33;0.67;;;;;21.51;35.20;102820.00;4972396;28;45406;-65
2021/11/23 03:11:35;;;;;;;;;1.00;1.00;;;;;21.50;35.50;102816.53;4971739;28;45529;-65
2021/11/23 03:14:00;;;;;;;;;1.00;1.00;;;;;21.50;35.40;102819.16;4970644;28;45519;-65
2021/11/23 03:16:25;;;;;;;;;0.00;0.00;;;;;21.49;35.60;102811.38;4971233;28;45431;-65
2021/11/23 03:18:51;;;;;;;;;0.00;0.00;;;;;21.50;35.08;102815.66;4972304;28;45486;-65
2021/11/23 03:21:16;;;;;;;;;1.50;1.00;;;;;21.44;35.39;102803.81;4969933;28;45864;-65
2021/11/23 03:23:41;;;;;;;;;0.00;0.00;;;;;21.50;35.29;102810.38;4966413;28;45636;-66
2021/11/23 03:26:07;;;;;;;;;1.00;1.00;;;;;21.46;35.31;102809.81;4959277;28;46053;-65
2021/11/23 03:28:32;;;;;;;;;1.00;1.00;;;;;21.47;35.48;102814.13;4968297;28;45430;-65
2021/11/23 03:30:58;;;;;;;;;1.00;1.00;;;;;21.48;35.32;102826.41;4970195;28;45455;-65
2021/11/23 03:33:23;;;;;;;;;1.00;1.00;;;;;21.49;35.45;102824.59;4969100;28;45269;-65
2021/11/23 03:35:49;;;;;;;;;1.00;1.00;;;;;21.45;35.37;102810.75;4966914;28;46794;-65
2021/11/23 03:38:15;;;;;;;;;1.25;1.25;;;;;21.47;35.24;102824.72;4966976;28;45296;-65
2021/11/23 03:40:41;;;;;;;;;1.00;1.00;;;;;21.47;35.56;102814.13;4967312;28;45569;-65
2021/11/23 03:43:08;;;;;;;;;0.00;0.00;;;;;21.48;35.18;102817.63;4955460;28;45343;-64
2021/11/23 03:45:35;;;;;;;;;1.25;1.00;;;;;21.42;35.44;102803.06;4968317;28;46504;-65
2021/11/23 03:48:01;;;;;;;;;1.00;1.00;;;;;21.43;35.63;102807.41;4966721;28;46010;-65
2021/11/23 03:50:28;;;;;;;;;1.00;1.00;;;;;21.45;35.53;102808.13;4966883;28;45350;-65
2021/11/23 03:52:55;;;;;;;;;1.00;1.00;;;;;21.46;35.39;102808.97;4966815;28;45563;-65
2021/11/23 03:55:22;;;;;;;;;1.00;1.00;;;;;21.45;35.10;102813.41;4969511;28;46421;-65
2021/11/23 03:57:49;;;;;;;;;2.00;0.00;;;;;21.45;35.39;102813.41;4969062;28;45439;-64
2021/11/23 04:00:18;;;;;;;;;1.00;1.00;;;;;21.48;35.41;102817.63;4966326;28;45419;-65
2021/11/23 04:02:44;;;;;;;;;2.00;1.00;;;;;21.44;34.96;102805.59;4966714;28;45586;-65
2021/11/23 04:05:10;;;;;;;;;0.00;0.00;;;;;21.46;35.11;102811.63;4964917;28;46326;-65
2021/11/23 04:07:39;;;;;;;;;1.00;1.00;;;;;21.45;35.09;102813.41;4970872;28;45360;-65
2021/11/23 04:10:06;;;;;;;;;0.50;0.50;;;;;21.39;35.17;102806.81;4970799;28;45345;-65
2021/11/23 04:12:31;;;;;;;;;1.25;1.00;;;;;21.42;35.08;102807.56;4973872;28;45672;-65
2021/11/23 04:14:57;;;;;;;;;1.25;1.25;;;;;21.31;35.50;102795.19;4970419;28;45451;-65
2021/11/23 04:17:22;;;;;;;;;0.00;0.00;;;;;21.45;34.96;102810.75;4970502;28;45429;-65
2021/11/23 04:19:47;;;;;;;;;0.50;0.50;;;;;21.47;35.20;102814.13;4970526;28;45300;-63
2021/11/23 04:22:12;;;;;;;;;2.67;1.67;;;;;21.46;34.83;102815.09;4970495;28;45496;-65
2021/11/23 04:24:38;;;;;;;;;1.00;1.00;;;;;21.40;34.83;102797.91;4974439;28;46343;-65
2021/11/23 04:27:04;;;;;;;;;2.00;2.00;;;;;21.47;35.24;102813.28;4972090;28;45353;-65
2021/11/23 04:29:30;;;;;;;;;1.33;1.00;;;;;21.47;34.68;102819.41;4973355;28;46116;-65
2021/11/23 04:31:55;;;;;;;;;2.00;2.00;;;;;21.46;35.41;102811.63;4973537;28;45450;-65
2021/11/23 04:34:21;;;;;;;;;2.00;0.00;;;;;21.48;34.92;102812.31;4973358;28;45302;-65
2021/11/23 04:36:46;;;;;;;;;1.00;1.00;;;;;21.48;35.16;102810.50;4974028;28;45351;-65
2021/11/23 04:39:12;;;;;;;;;1.00;0.25;;;;;21.46;35.24;102801.03;4973256;28;45338;-65
2021/11/23 04:41:39;;;;;;;;;0.00;0.00;;;;;21.47;34.98;102811.47;4972986;28;45519;-65
2021/11/23 04:44:05;;;;;;;;;1.50;1.00;;;;;21.45;35.01;102805.47;4971729;28;46359;-65
2021/11/23 04:46:31;;;;;;;;;1.00;1.00;;;;;21.44;35.02;102795.03;4973411;28;45379;-65
2021/11/23 04:48:56;;;;;;;;;0.75;0.75;;;;;21.44;34.94;102801.16;4973331;28;45328;-65
2021/11/23 04:51:22;;;;;;;;;2.00;0.00;;;;;21.44;35.10;102795.88;4975604;28;46973;-65
2021/11/23 04:53:47;;;;;;;;;1.00;1.00;;;;;21.43;34.94;102796.81;4973161;28;46464;-65
2021/11/23 04:56:13;;;;;;;;;0.75;0.00;;;;;;;;4972739;28;45505;-65
2021/11/23 04:58:38;;;;;;;;;1.00;1.00;;;;;21.40;35.06;102789.13;4973543;28;45612;-65
2021/11/23 05:01:03;;;;;;;;;1.00;1.00;;;;;;;;4973344;28;45483;-65
2021/11/23 05:03:29;;;;;;;;;1.00;1.00;;;;;21.37;35.01;102792.88;4975191;28;45437;-65
2021/11/23 05:05:54;;;;;;;;;1.00;0.00;;;;;21.43;35.12;102802.13;4962973;28;45565;-65
2021/11/23 05:08:20;;;;;;;;;0.00;0.00;;;;;21.44;35.20;102802.97;4961726;28;45673;-65
2021/11/23 05:10:45;;;;;;;;;0.25;0.25;;;;;;;;4968722;28;45386;-65
2021/11/23 05:13:10;;;;;;;;;1.00;1.00;;;;;;;;4973265;28;46738;-65
2021/11/23 05:15:35;;;;;;;;;2.00;0.00;;;;;21.39;35.19;102804.16;4971344;28;45272;-65
2021/11/23 05:18:01;;;;;;;;;2.50;1.00;;;;;21.43;35.21;102815.34;4967167;28;45467;-65
2021/11/23 05:20:26;;;;;;;;;0.50;0.50;;;;;21.37;34.93;102806.09;4968669;28;45538;-65
2021/11/23 05:22:52;;;;;;;;;1.00;1.00;;;;;21.40;35.36;102810.31;4967197;28;46511;-66
2021/11/23 05:25:17;;;;;;;;;1.00;1.00;;;;;21.42;35.02;102808.38;4971718;28;45390;-65
2021/11/23 05:27:43;;;;;;;;;0.25;0.25;;;;;21.43;34.95;102815.34;4971290;28;45253;-65
2021/11/23 05:30:10;;;;;;;;;1.00;1.00;;;;;21.39;35.11;102806.00;4969254;28;45291;-65
2021/11/23 05:32:35;;;;;;;;;1.00;1.00;;;;;21.42;34.87;102821.59;4968382;28;45525;-65
2021/11/23 05:35:01;;;;;;;;;0.50;0.50;;;;;21.37;35.13;102814.06;4968247;28;45438;-65
2021/11/23 05:37:26;;;;;;;;;1.00;1.00;;;;;21.39;35.25;102820.06;4970534;28;45698;-65
2021/11/23 05:39:52;;;;;;;;;0.75;0.75;;;;;21.42;35.19;102824.25;4971047;28;45292;-65
2021/11/23 05:42:17;;;;;;;;;2.75;1.00;;;;;21.39;34.79;102822.69;4969909;28;45617;-65
2021/11/23 05:44:42;;;;;;;;;0.00;0.00;;;;;21.40;34.68;102816.47;4967177;28;45498;-65
2021/11/23 05:47:09;;;;;;;;;1.00;1.00;;;;;21.39;34.83;102819.25;4968675;28;45385;-65
2021/11/23 05:49:35;;;;;;;;;0.75;0.75;;;;;21.40;34.64;102815.59;4972836;28;45556;-65
2021/11/23 05:52:00;;;;;;;;;1.00;1.00;;;;;21.37;34.92;102807.91;4972497;28;45824;-65
2021/11/23 05:54:25;;;;;;;;;0.00;0.00;;;;;21.37;35.24;102808.75;4974609;28;45326;-65
2021/11/23 05:56:51;;;;;;;;;1.00;1.00;;;;;21.38;34.90;102804.31;4971411;28;45552;-65
2021/11/23 05:59:17;;;;;;;;;1.00;1.00;;;;;21.22;34.65;102787.06;4983257;28;45506;-65
2021/11/23 06:01:43;;;;;;;;;1.00;1.00;;;;;21.33;34.94;102803.84;4971060;28;47676;-65
2021/11/23 06:04:08;;;;;;;;;3.00;1.00;;;;;21.41;34.95;102819.94;4972435;28;45552;-64
2021/11/23 06:06:34;;;;;;;;;1.00;1.00;;;;;21.42;34.47;102826.09;4974316;28;45382;-65
2021/11/23 06:08:59;;;;;;;;;0.00;0.00;;;;;21.36;34.63;102815.03;4971878;28;45749;-65
2021/11/23 06:11:25;;;;;;;;;1.00;1.00;;;;;21.38;34.90;102822.84;4972005;28;46257;-65
2021/11/23 06:13:52;;;;;;;;;1.75;1.50;;;;;21.41;34.78;102825.25;4972292;28;45442;-65
2021/11/23 06:16:17;;;;;;;;;0.00;0.00;;;;;21.38;34.98;102820.19;4972407;28;45621;-65
2021/11/23 06:18:42;;;;;;;;;1.00;1.00;;;;;21.39;34.83;102827.19;4973487;28;45517;-65
2021/11/23 06:21:08;;;;;;;;;1.00;1.00;;;;;21.43;34.53;102833.91;4972756;28;45355;-65
2021/11/23 06:23:34;;;;;;;;;1.00;1.00;;;;;;;;4971686;28;45434;-65
2021/11/23 06:26:00;;;;;;;;;3.00;2.00;;;;;21.40;34.89;102837.63;4972056;28;45214;-66
2021/11/23 06:28:25;;;;;;;;;1.00;1.00;;;;;21.37;34.89;102843.19;4972272;28;45245;-65
2021/11/23 06:30:51;;;;;;;;;1.00;1.00;;;;;21.40;34.74;102842.94;4972480;28;45515;-65
2021/11/23 06:33:17;;;;;;;;;1.00;1.00;;;;;21.37;34.84;102839.69;4973649;28;45558;-65
2021/11/23 06:35:43;;;;;;;;;0.75;0.75;;;;;21.42;34.67;102850.75;4970537;28;45422;-65
2021/11/23 06:38:09;;;;;;;;;2.00;0.75;;;;;21.42;34.64;102855.22;4971512;28;45560;-65
2021/11/23 06:40:38;;;;;;;;;2.25;1.75;;;;;21.40;34.55;102857.97;4970387;28;45610;-65
2021/11/23 06:43:04;;;;;;;;;2.00;1.00;;;;;21.38;34.84;102860.75;4971849;28;45340;-66
2021/11/23 06:45:29;;;;;;;;;1.00;1.00;;;;;21.40;34.90;102866.78;4973889;28;45355;-65
2021/11/23 06:47:55;;;;;;;;;1.00;1.00;;;;;21.40;34.91;102861.47;4967732;28;45584;-66
2021/11/23 06:50:20;;;;;;;;;1.00;1.00;;;;;21.34;35.08;102842.63;4965216;28;45626;-66
2021/11/23 06:52:46;;;;;;;;;2.00;2.00;;;;;21.40;34.87;102852.69;4967281;28;45402;-66
2021/11/23 06:55:11;;;;;;;;;1.00;1.00;;;;;21.40;34.80;102857.97;4971868;28;45572;-66
2021/11/23 06:57:37;;;;;;;;;3.50;2.00;;;;;21.31;34.40;102842.88;4972976;28;45407;-65
2021/11/23 07:00:09;;;;;;;;;1.00;1.00;;;;;21.39;34.84;102853.66;4967349;28;46718;-66
2021/11/23 07:02:35;;;;;;;;;1.00;1.00;;;;;21.38;34.91;102852.81;4970421;28;45400;-66
2021/11/23 07:05:00;;;;;;;;;1.75;1.00;;;;;21.38;34.95;102851.97;4967444;28;45373;-65
2021/11/23 07:07:27;;;;;;;;;2.00;2.00;;;;;21.36;35.05;102852.13;4963540;28;45692;-66
2021/11/23 07:09:53;;;;;;;;;5.75;2.00;;;;;21.39;35.10;102866.91;4966001;28;45649;-65
2021/11/23 07:12:18;;;;;;;;;3.75;1.50;;;;;21.35;35.53;102860.16;4971597;28;45368;-65
2021/11/23 07:14:44;;;;;;;;;1.00;1.00;;;;;21.38;35.69;102858.13;4968343;28;45520;-65
2021/11/23 07:17:09;;;;;;;;;2.50;1.50;;;;;21.39;35.42;102864.25;4964727;28;45282;-66
2021/11/23 07:19:34;;;;;;;;;1.00;0.25;;;;;21.36;35.57;102870.66;4967612;28;45595;-64
2021/11/23 07:22:00;;;;;;;;;4.25;1.25;;;;;21.39;35.72;102864.25;4970667;28;45469;-65
2021/11/23 07:24:28;;;;;;;;;3.00;1.00;;;;;21.32;35.92;102860.41;4972197;28;45520;-65
2021/11/23 07:26:54;;;;;;;;;2.33;1.00;;;;;21.41;35.62;102880.84;4969012;28;45464;-66
2021/11/23 07:29:20;;;;;;;;;2.00;2.00;;;;;21.36;35.87;102875.94;4971668;28;47188;-66
2021/11/23 07:31:45;;;;;;;;;3.00;1.50;;;;;21.38;35.56;102884.59;4971087;28;45397;-68
2021/11/23 07:34:11;;;;;;;;;2.00;1.00;;;;;21.39;35.68;102878.31;4970254;28;45386;-64
2021/11/23 07:36:38;;;;;;;;;3.00;2.00;;;;;21.43;35.73;102889.50;4971862;28;45376;-66
2021/11/23 07:39:04;;;;;;;;;2.00;2.00;;;;;;;;4971184;28;46188;-66
2021/11/23 07:41:29;;;;;;;;;1.00;1.00;;;;;21.42;36.13;102892.28;4971035;28;45467;-66
2021/11/23 07:43:56;;;;;;;;;1.00;1.00;;;;;21.43;36.08;102894.81;4971250;28;45409;-66
2021/11/23 07:46:22;;;;;;;;;3.25;1.25;;;;;21.43;35.73;102894.81;4971145;28;45355;-66
2021/11/23 07:48:47;;;;;;;;;4.00;1.75;;;;;21.44;35.99;102893.84;4971913;28;45836;-67
2021/11/23 07:51:13;;;;;;;;;3.75;1.75;;;;;;;;4971841;28;45369;-67
2021/11/23 07:53:38;;;;;;;;;2.75;1.00;;;;;21.43;35.51;102897.44;4969373;28;45502;-66
2021/11/23 07:56:04;;;;;;;;;3.00;1.75;;;;;;;;4971062;28;45265;-66
2021/11/23 07:58:29;;;;;;;;;1.25;1.25;;;;;21.44;36.04;102904.44;4969873;28;45317;-66
2021/11/23 08:00:54;;;;;;;;;3.00;1.00;;;;;21.46;36.00;102906.94;4972701;28;45456;-66
2021/11/23 08:03:20;;;;;;;;;1.50;1.00;;;;;;;;4976184;28;45439;-66
2021/11/23 08:05:45;;;;;;;;;3.00;2.00;;;;;21.45;35.99;102910.56;4973445;28;45488;-66
2021/11/23 08:08:13;;;;;;;;;1.00;1.00;;;;;21.45;35.92;102911.41;4973683;28;46291;-66
2021/11/23 08:10:39;;;;;;;;;1.00;1.00;;;;;21.45;35.70;102911.41;4973618;28;45850;-66
2021/11/23 08:13:04;;;;;;;;;2.00;1.00;;;;;21.48;35.77;102907.66;4973900;28;45482;-66
2021/11/23 08:15:30;;;;;;;;;2.50;1.25;;;;;21.47;36.15;102905.97;4975791;28;45253;-67
2021/11/23 08:17:55;;;;;;;;;1.00;0.75;;;;;21.45;35.64;102902.63;4973400;28;47275;-66
2021/11/23 08:20:21;;;;;;;;;2.25;1.00;;;;;21.47;35.80;102912.09;4973119;28;45464;-66
2021/11/23 08:22:48;;;;;;;;;2.00;1.00;;;;;21.47;35.69;102911.25;4973760;28;45413;-66
2021/11/23 08:25:15;;;;;;;;;1.00;1.00;;;;;21.47;35.92;102908.63;4973710;28;45611;-66
2021/11/23 08:27:41;;;;;;;;;2.00;2.00;;;;;21.47;35.88;102911.25;4974999;28;46261;-66
2021/11/23 08:30:09;;;;;;;;;3.00;1.00;;;;;21.47;35.69;102920.06;4973951;28;45556;-66
2021/11/23 08:32:35;;;;;;;;;3.00;2.00;;;;;21.47;35.64;102917.41;4971998;28;45394;-66
2021/11/23 08:35:00;;;;;;;;;2.00;2.00;;;;;21.49;36.05;102915.47;4968564;28;45424;-66
2021/11/23 08:37:27;;;;;;;;;1.50;1.50;;;;;21.46;35.40;102915.75;4970738;28;46124;-66
2021/11/23 08:39:56;;;;;;;;;2.75;2.25;;;;;21.50;35.40;102919.81;4971739;28;45770;-66
2021/11/23 08:42:22;;;;;;;;;1.50;1.00;;;;;21.47;35.36;102914.75;4960383;28;45474;-66
2021/11/23 08:44:48;;;;;;;;;1.00;1.00;;;;;21.50;35.29;102924.25;4965168;28;45364;-66
2021/11/23 08:47:15;;;;;;;;;1.75;1.75;;;;;21.46;35.75;102917.53;4968849;28;45325;-66
2021/11/23 08:49:41;;;;;;;;;2.00;1.00;;;;;21.50;35.77;102929.56;4969085;28;45432;-66
2021/11/23 08:52:07;;;;;;;;;2.00;2.00;;;;;21.50;35.85;102930.41;4973439;28;45486;-66
2021/11/23 08:54:32;;;;;;;;;2.50;1.75;;;;;21.50;35.91;102932.22;4971071;28;45521;-66
2021/11/23 08:57:07;;;;;;;;;1.00;1.00;;;;;21.46;35.71;102923.69;4968753;28;45406;-66
2021/11/23 08:59:34;;;;;;;;;2.50;1.00;;;;;21.52;35.97;102928.47;4968909;28;45564;-66
2021/11/23 09:02:03;;;;;;;;;3.00;1.00;;;;;21.50;35.86;102934.84;4968622;28;45284;-67
2021/11/23 09:04:29;;;;;;;;;1.75;1.75;;;;;21.53;35.41;102931.97;4970599;28;45338;-67
2021/11/23 09:06:56;;;;;;;;;4.00;2.25;;;;;21.49;35.48;102927.91;4971382;28;45479;-67
2021/11/23 09:09:27;;;;;;;;;0.50;0.50;;;;;21.54;35.78;102936.31;4970807;28;45331;-67
2021/11/23 09:11:53;;;;;;;;;1.75;1.75;;;;;21.57;35.66;102941.31;4966602;28;45529;-67
2021/11/23 09:14:19;;;;;;;;;2.75;2.75;;;;;21.58;35.57;102947.47;4973132;28;45561;-66
2021/11/23 09:16:45;;;;;;;;;1.50;1.50;;;;;21.56;35.49;102950.25;4966843;28;46502;-67
2021/11/23 09:19:10;;;;;;;;;1.25;1.00;;;;;21.46;35.57;102933.44;4973155;28;45443;-67
2021/11/23 09:21:36;;;;;;;;;1.50;1.50;;;;;21.60;35.42;102956.13;4970774;28;45317;-67
2021/11/23 09:24:02;;;;;;;;;2.50;2.00;;;;;21.58;35.32;102947.47;4972893;28;45366;-67
2021/11/23 09:26:28;;;;;;;;;1.25;0.75;;;;;21.58;35.23;102943.03;4972706;28;45333;-67
2021/11/23 09:28:54;;;;;;;;;1.00;1.00;;;;;21.60;35.50;102943.72;4972742;28;45377;-67
2021/11/23 09:31:19;;;;;;;;;2.00;2.00;;;;;21.58;35.38;102944.81;4972692;28;45724;-67
2021/11/23 09:33:45;;;;;;;;;2.50;1.75;;;;;21.62;35.43;102940.97;4974167;28;45397;-67
2021/11/23 09:36:10;;;;;;;;;1.00;1.00;;;;;21.60;35.35;102942.88;4973380;28;46374;-67
2021/11/23 09:38:37;;;;;;;;;3.00;1.00;;;;;21.62;35.23;102951.56;4972714;28;45407;-67
2021/11/23 09:41:04;;;;;;;;;2.00;2.00;;;;;21.59;35.18;102946.53;4972768;28;45319;-67
2021/11/23 09:43:30;;;;;;;;;2.25;1.25;;;;;21.62;35.26;102949.72;4972764;28;45346;-67
2021/11/23 09:45:55;;;;;;;;;2.00;2.00;;;;;21.63;35.18;102958.53;4971960;28;46590;-67
2021/11/23 09:48:21;;;;;;;;;2.25;2.00;;;;;21.65;35.46;102955.78;4974635;28;45462;-67
2021/11/23 09:50:48;;;;;;;;;2.00;2.00;;;;;21.62;35.47;102949.72;4971242;28;45461;-67
2021/11/23 09:53:15;;;;;;;;;2.00;2.00;;;;;21.62;35.48;102946.28;4972351;28;45479;-67
2021/11/23 09:55:41;;;;;;;;;2.00;2.00;;;;;21.63;35.16;102953.22;4970968;28;46625;-67
2021/11/23 09:58:10;;;;;;;;;2.25;2.00;;;;;21.60;35.31;102954.31;4970769;28;45414;-67
2021/11/23 10:00:38;;;;;;;;;1.00;1.00;;;;;21.61;35.29;102957.81;4973625;28;45323;-67
2021/11/23 10:03:12;;;;;;;;;1.00;1.00;;;;;21.63;35.07;102955.88;4972426;28;45583;-67
2021/11/23 10:05:40;;;;;;;;;1.00;1.00;;;;;21.63;35.01;102969.13;4972201;28;45356;-67
2021/11/23 10:08:16;;;;;;;;;1.00;1.00;;;;;21.62;35.10;102959.50;4972203;28;45725;-67
2021/11/23 10:10:46;;;;;;;;;2.50;2.00;;;;;21.62;35.25;102962.16;4972455;28;45376;-67
2021/11/23 10:13:15;;;;;;;;;2.00;2.00;;;;;21.57;35.13;102937.88;4957515;28;45291;-67
2021/11/23 10:15:45;;;;;;;;;1.50;1.00;;;;;21.62;35.12;102954.22;4973244;28;46493;-67
2021/11/23 10:18:15;;;;;;;;;1.25;1.00;;;;;21.62;35.54;102946.28;4969341;28;45465;-67
2021/11/23 10:20:56;;;;;;;;;1.00;1.00;;;;;21.63;35.24;102947.94;4967898;28;45404;-67
2021/11/23 10:23:36;;;;;;;;;1.00;1.00;;;;;21.65;35.19;102950.47;4967931;28;45332;-67
2021/11/23 10:26:12;;;;;;;;;2.00;2.00;;;;;21.64;35.33;102946.97;4967731;28;46051;-67
2021/11/23 10:28:37;;;;;;;;;0.00;0.00;;;;;21.61;35.08;102931.34;4967057;28;45572;-66
2021/11/23 10:31:05;;;;;;;;;1.25;1.00;;;;;21.63;35.23;102940.00;4971387;28;45469;-67
2021/11/23 10:33:33;;;;;;;;;1.00;1.00;;;;;21.62;34.86;102933.84;4970137;28;45382;-67
2021/11/23 10:35:59;;;;;;;;;1.00;1.00;;;;;21.64;35.31;102931.09;4967865;28;46429;-67
2021/11/23 10:38:26;;;;;;;;;1.00;1.00;;;;;21.58;35.61;102920.97;4967670;28;45470;-67
2021/11/23 10:40:52;;;;;;;;;1.50;1.50;;;;;21.63;35.16;102927.59;4967856;28;45514;-67
2021/11/23 10:43:20;;;;;;;;;2.00;2.00;;;;;21.62;35.32;102923.25;4971350;28;45455;-67
2021/11/23 10:45:51;;;;;;;;;1.00;0.75;;;;;21.63;35.60;102922.28;4968739;28;47555;-67
2021/11/23 10:48:18;;;;;;;;;1.50;1.00;;;;;21.62;34.84;102907.34;4968890;28;45421;-67
2021/11/23 10:51:01;;;;;;;;;1.25;1.25;;;;;21.66;34.73;102917.69;4967666;28;45391;-67
2021/11/23 10:53:27;;;;;;;;;1.00;1.00;;;;;21.65;35.05;102908.91;4967551;28;45556;-67
2021/11/23 10:55:52;;;;;;;;;2.00;1.00;;;;;21.66;34.80;102907.09;4968995;28;45486;-67
2021/11/23 10:58:18;;;;;;;;;1.00;0.00;;;;;21.67;35.18;102914.09;4971379;28;45362;-67
2021/11/23 11:00:47;;;;;;;;;1.00;1.00;;;;;21.68;35.20;102902.50;4973222;28;45331;-67
2021/11/23 11:03:16;;;;;;;;;0.00;0.00;;;;;21.67;35.28;102895.56;4972831;28;45277;-67
2021/11/23 11:05:42;;;;;;;;;1.00;1.00;;;;;21.66;34.85;102900.00;4971321;28;47011;-67
2021/11/23 11:08:09;;;;;;;;;1.50;1.50;;;;;21.65;34.91;102887.72;4969833;28;45366;-67
2021/11/23 11:10:36;;;;;;;;;2.50;1.00;;;;;21.62;35.12;102883.50;4971566;28;45485;-66
2021/11/23 11:13:09;;;;;;;;;1.00;1.00;;;;;21.68;35.11;102887.47;4971263;28;45323;-67
2021/11/23 11:15:44;;;;;;;;;1.00;1.00;;;;;21.68;35.37;102890.13;4973290;28;47186;-67
2021/11/23 11:18:13;;;;;;;;;1.75;1.75;;;;;21.67;34.65;102898.19;4970688;28;45523;-67
2021/11/23 11:20:44;;;;;;;;;1.00;1.00;;;;;21.66;35.12;102892.06;4971229;28;45315;-67
2021/11/23 11:23:31;;;;;;;;;0.25;0.25;;;;;21.67;34.96;102888.44;4971399;28;45371;-67
2021/11/23 11:28:43;;;;;;;;;2.00;2.00;;;;;21.62;34.83;102864.16;4971054;28;45638;-67